Time;durP1;ratioP1;P1;durP2;ratioP2;P2;SDS_P1;SDS_P2;PMS_P1;PMS_P2;Temp;Humidity;BMP_temperature;BMP_pressure;BME280_temperature;BME280_humidity;BME280_pressure;Samples;Min_cycle;Max_cycle;Signal;HPM_P1;HPM_P2
2022/06/23 00:02:26;;;;;;;4.15;2.02;;;;;;;17.20;64.50;99438.94;1826892;77;21587;-69
2022/06/23 00:04:58;;;;;;;3.83;1.87;;;;;;;17.19;64.61;99439.94;1820119;77;21684;-69
2022/06/23 00:07:35;;;;;;;4.10;1.67;;;;;;;17.19;64.59;99441.27;1823416;77;21511;-70
2022/06/23 00:10:28;;;;;;;4.00;2.00;;;;;;;17.13;64.62;99436.72;1823643;77;21089;-69
2022/06/23 00:12:55;;;;;;;4.45;1.57;;;;;;;17.11;64.92;99444.04;1794061;78;21121;-70
2022/06/23 00:15:29;;;;;;;4.30;1.87;;;;;;;17.12;65.13;99447.03;1822666;77;21030;-69
2022/06/23 00:18:00;;;;;;;4.15;1.95;;;;;;;17.11;65.42;99452.02;1821489;77;21575;-70
2022/06/23 00:20:38;;;;;;;4.97;1.98;;;;;;;17.09;65.23;99456.19;1811852;77;21066;-70
2022/06/23 00:23:18;;;;;;;5.05;2.15;;;;;;;17.08;65.50;99451.89;1806305;79;21528;-70
2022/06/23 00:26:01;;;;;;;4.47;2.02;;;;;;;17.14;65.36;99455.62;1832414;77;21048;-70
2022/06/23 00:28:38;;;;;;;4.05;2.10;;;;;;;17.15;64.88;99459.94;1828701;77;21041;-70
2022/06/23 00:31:06;;;;;;;4.42;1.95;;;;;;;17.16;65.23;99460.76;1825174;77;21033;-70
2022/06/23 00:33:41;;;;;;;7.05;1.90;;;;;;;17.12;64.72;99472.80;1830523;77;21543;-69
2022/06/23 00:36:19;;;;;;;4.33;2.02;;;;;;;17.07;65.20;99464.86;1828885;77;22186;-70
2022/06/23 00:38:45;;;;;;;5.92;1.98;;;;;;;17.11;65.39;99477.27;1824560;77;22896;-70
2022/06/23 00:41:17;;;;;;;7.78;2.17;;;;;;;17.13;65.29;99461.98;1821252;76;21031;-70
2022/06/23 00:43:48;;;;;;;3.87;1.90;;;;;;;17.13;65.11;99458.47;1822387;76;21136;-69
2022/06/23 00:46:23;;;;;;;5.30;2.17;;;;;;;17.11;65.10;99454.67;1821967;78;21051;-69
2022/06/23 00:49:04;;;;;;;7.03;2.20;;;;;;;17.09;64.87;99462.83;1818149;77;21055;-70
2022/06/23 00:51:42;;;;;;;4.00;1.70;;;;;;;17.12;64.86;99460.31;1806560;77;21222;-69
2022/06/23 00:54:17;;;;;;;5.78;1.98;;;;;;;17.14;64.78;99459.61;1806575;78;21701;-68
2022/06/23 00:57:01;;;;;;;5.28;2.10;;;;;;;17.14;64.84;99456.95;1806145;78;21078;-68
2022/06/23 01:12:08;;;;;;;3.98;1.80;;;;;;;17.72;63.21;99438.28;1754613;77;65460;-57
2022/06/23 01:15:04;;;;;;;4.60;1.82;;;;;;;17.76;62.86;99427.55;1723275;80;21045;-57
2022/06/23 01:17:50;;;;;;;5.00;2.27;;;;;;;17.69;63.01;99424.55;1724259;80;21141;-59
2022/06/23 01:20:22;;;;;;;9.95;2.08;;;;;;;17.64;63.02;99423.27;1729227;80;21038;-59
2022/06/23 01:23:00;;;;;;;5.30;2.17;;;;;;;17.55;63.36;99420.93;1729216;80;21020;-59
2022/06/23 01:25:44;;;;;;;4.72;2.08;;;;;;;17.46;63.75;99420.25;1718315;82;21018;-58
2022/06/23 01:28:17;;;;;;;4.45;2.20;;;;;;;17.41;64.23;99426.12;1730149;81;21115;-60
2022/06/23 01:31:16;;;;;;;5.62;2.30;;;;;;;17.34;64.58;99427.10;1722665;80;21122;-60
2022/06/23 01:34:09;;;;;;;6.25;2.10;;;;;;;17.26;65.11;99430.70;1737465;80;21097;-59
2022/06/23 01:36:48;;;;;;;6.53;2.12;;;;;;;17.16;65.67;99427.53;1734652;80;20992;-58
2022/06/23 01:39:28;;;;;;;4.45;2.08;;;;;;;17.09;66.47;99438.91;1736299;80;21112;-59
2022/06/23 01:42:20;;;;;;;5.53;2.33;;;;;;;17.04;67.96;99432.52;1735731;80;21729;-60
2022/06/23 01:45:12;;;;;;;5.05;2.17;;;;;;;17.00;68.52;99428.61;1740672;80;21185;-60
2022/06/23 01:47:50;;;;;;;7.12;2.33;;;;;;;16.93;69.07;99435.17;1717630;81;21172;-60
2022/06/23 01:50:41;;;;;;;5.37;2.50;;;;;;;16.85;69.31;99442.74;1736041;80;21008;-61
2022/06/23 01:53:27;;;;;;;5.53;2.52;;;;;;;16.80;69.78;99448.28;1738134;80;21021;-58
2022/06/23 01:56:32;;;;;;;3.87;2.00;;;;;;;16.72;70.59;99450.00;1730973;80;21598;-60
2022/06/23 01:59:07;;;;;;;8.45;2.35;;;;;;;16.62;71.00;99453.97;1728147;80;21128;-59
2022/06/23 02:02:17;;;;;;;4.60;2.27;;;;;;;16.55;71.79;99455.21;1735867;80;21054;-60
2022/06/23 02:05:19;;;;;;;4.50;2.22;;;;;;;16.55;71.73;99456.54;1739965;80;21148;-60
2022/06/23 02:08:03;;;;;;;5.08;2.02;;;;;;;16.56;72.01;99459.53;1738880;81;21045;-61
2022/06/23 02:10:41;;;;;;;6.30;2.67;;;;;;;16.55;72.57;99466.34;1685124;82;21042;-62
2022/06/23 02:13:14;;;;;;;6.40;2.42;;;;;;;16.58;72.63;99462.81;1734455;80;21156;-62
2022/06/23 02:16:03;;;;;;;6.00;2.45;;;;;;;16.65;72.81;99466.89;1731572;80;21112;-61
2022/06/23 02:18:50;;;;;;;5.83;2.87;;;;;;;16.69;73.10;99470.80;1739741;80;21093;-61
2022/06/23 02:21:31;;;;;;;7.67;3.22;;;;;;;16.68;73.56;99461.21;1726072;81;21109;-61
2022/06/23 02:24:25;;;;;;;4.90;2.52;;;;;;;16.69;73.62;99462.36;1724612;80;21539;-58
2022/06/23 02:27:10;;;;;;;5.03;2.87;;;;;;;16.75;73.34;99463.44;1707017;81;21148;-59
2022/06/23 02:30:03;;;;;;;5.58;2.80;;;;;;;16.83;72.98;99465.99;1737878;80;21090;-60
2022/06/23 02:32:54;;;;;;;4.80;2.60;;;;;;;16.82;72.73;99468.31;1727942;80;21132;-60
2022/06/23 02:35:34;;;;;;;5.72;2.42;;;;;;;16.76;72.84;99469.56;1736370;80;21085;-60
2022/06/23 02:38:22;;;;;;;7.03;2.50;;;;;;;16.72;72.79;99466.45;1738883;80;21460;-59
2022/06/23 02:40:56;;;;;;;5.03;2.30;;;;;;;16.73;72.66;99472.10;1736586;80;21738;-60
2022/06/23 02:43:43;;;;;;;6.17;3.20;;;;;;;16.72;72.44;99474.42;1725164;81;21559;-60
2022/06/23 02:46:27;;;;;;;5.85;2.75;;;;;;;16.70;72.67;99475.13;1713101;81;21163;-60
2022/06/23 02:49:19;;;;;;;5.10;2.77;;;;;;;16.68;72.46;99471.83;1713355;81;21124;-60
2022/06/23 02:52:04;;;;;;;5.47;2.85;;;;;;;16.69;72.20;99474.79;1713839;81;21496;-58
2022/06/23 02:54:59;;;;;;;6.15;3.40;;;;;;;16.66;72.26;99479.98;1724157;80;21142;-60
2022/06/23 02:57:37;;;;;;;5.60;3.50;;;;;;;16.65;72.44;99480.98;1733763;80;21130;-59
2022/06/23 03:00:19;;;;;;;5.47;3.33;;;;;;;16.65;72.40;99478.33;1742724;80;21062;-59
2022/06/23 03:03:03;;;;;;;8.18;3.70;;;;;;;16.68;72.26;99479.28;1734633;80;21075;-59
2022/06/23 03:05:50;;;;;;;5.22;2.98;;;;;;;16.68;72.26;99477.14;1728675;80;21545;-59
2022/06/23 03:08:38;;;;;;;6.37;3.08;;;;;;;16.63;72.23;99486.17;1720072;80;21140;-59
2022/06/23 03:14:35;;;;;;;5.83;3.50;;;;;;;16.67;71.99;99475.48;1735657;81;21100;-60
2022/06/23 03:17:27;;;;;;;6.30;3.45;;;;;;;16.70;71.94;99479.11;1729305;81;21065;-60
2022/06/23 03:20:07;;;;;;;6.25;3.02;;;;;;;16.69;71.80;99474.79;1739456;80;21686;-59
2022/06/23 03:22:42;;;;;;;6.17;4.05;;;;;;;16.72;71.81;99476.56;1735426;80;21122;-60
2022/06/23 03:25:49;;;;;;;8.05;3.62;;;;;;;16.80;71.42;99480.16;1741563;80;21125;-58
2022/06/23 03:28:33;;;;;;;6.33;3.58;;;;;;;16.84;71.24;99482.27;1726573;80;21609;-60
2022/06/23 03:31:08;;;;;;;6.78;3.62;;;;;;;16.81;71.38;99483.95;1724997;81;21103;-59
2022/06/23 03:34:05;;;;;;;6.10;3.72;;;;;;;16.79;71.53;99477.98;1726624;80;21812;-58
2022/06/23 03:36:41;;;;;;;7.22;3.62;;;;;;;16.82;71.63;99477.61;1727609;81;21150;-58
2022/06/23 03:42:52;;;;;;;8.88;3.65;;;;;;;16.89;71.70;99477.73;1734755;80;21133;-58
2022/06/23 03:45:32;;;;;;;7.90;3.92;;;;;;;16.95;71.35;99477.51;1736943;80;21045;-58
2022/06/23 03:48:19;;;;;;;7.47;3.83;;;;;;;17.02;71.14;99475.23;1735397;80;21666;-59
2022/06/23 03:51:18;;;;;;;7.42;4.15;;;;;;;17.04;71.06;99480.36;1707480;80;21622;-59
2022/06/23 03:53:53;;;;;;;10.80;3.92;;;;;;;17.02;71.05;99486.38;1701366;83;21115;-58
2022/06/23 03:56:23;;;;;;;6.60;4.08;;;;;;;17.05;71.38;99508.59;1672335;84;21089;-58
2022/06/23 03:59:17;;;;;;;6.97;3.98;;;;;;;17.11;71.56;99503.84;1682431;83;21466;-59
2022/06/23 04:02:07;;;;;;;6.45;4.47;;;;;;;17.12;70.60;99516.13;1680561;83;21080;-59
2022/06/23 04:05:00;;;;;;;6.87;4.12;;;;;;;17.16;70.95;99521.37;1662600;83;21166;-60
2022/06/23 04:07:50;;;;;;;6.50;4.53;;;;;;;17.20;70.14;99520.02;1681582;83;21146;-59
2022/06/23 04:10:32;;;;;;;8.78;4.75;;;;;;;17.31;69.00;99519.20;1693513;83;21566;-59
2022/06/23 04:13:21;;;;;;;7.47;4.50;;;;;;;17.32;68.57;99525.66;1701618;83;20993;-59
2022/06/23 04:15:49;;;;;;;7.53;4.10;;;;;;;17.31;68.76;99525.34;1649086;83;21166;-60
2022/06/23 04:18:23;;;;;;;8.38;4.25;;;;;;;17.34;68.41;99519.65;1682191;83;21818;-60
2022/06/23 04:21:00;;;;;;;6.10;4.05;;;;;;;17.42;67.74;99518.72;1670527;84;21103;-59
2022/06/23 04:23:34;;;;;;;6.25;4.08;;;;;;;17.43;67.16;99519.02;1671022;83;21150;-60
2022/06/23 04:26:08;;;;;;;8.68;4.00;;;;;;;17.40;67.26;99527.37;1676973;83;21174;-59
2022/06/23 04:28:50;;;;;;;6.83;4.30;;;;;;;17.42;66.90;99519.53;1662230;83;22399;-59
2022/06/23 04:31:28;;;;;;;6.85;4.53;;;;;;;17.48;67.17;99513.95;1683715;83;21807;-59
2022/06/23 04:33:55;;;;;;;6.95;4.67;;;;;;;17.48;67.08;99521.12;1684085;82;21844;-60
2022/06/23 04:36:32;;;;;;;7.03;4.28;;;;;;;17.46;67.30;99526.11;1682729;83;21033;-60
2022/06/23 04:39:23;;;;;;;7.55;4.50;;;;;;;17.48;67.29;99530.42;1670053;83;21084;-58
2022/06/23 04:42:21;;;;;;;8.65;4.67;;;;;;;17.55;66.89;99530.83;1673355;83;21788;-58
2022/06/23 04:44:51;;;;;;;7.92;4.42;;;;;;;17.59;67.04;99529.42;1691868;83;21197;-58
2022/06/23 04:47:22;;;;;;;7.97;4.20;;;;;;;17.62;66.80;99525.58;1678101;83;21199;-59
2022/06/23 04:50:00;;;;;;;7.42;4.12;;;;;;;17.72;66.95;99529.23;1677813;83;21179;-59
2022/06/23 04:52:43;;;;;;;8.00;3.87;;;;;;;17.82;66.46;99537.73;1673260;83;21095;-59
2022/06/23 04:55:26;;;;;;;8.80;4.15;;;;;;;17.90;65.52;99529.63;1691041;83;21151;-57
2022/06/23 04:58:03;;;;;;;7.45;4.00;;;;;;;17.89;65.52;99525.34;1686084;83;21162;-59
2022/06/23 05:00:48;;;;;;;9.45;4.12;;;;;;;17.91;65.98;99531.28;1691111;83;21383;-57
2022/06/23 05:03:23;;;;;;;6.60;3.60;;;;;;;17.97;65.76;99542.51;1689245;83;21633;-57
2022/06/23 05:06:07;;;;;;;8.10;3.80;;;;;;;18.05;65.44;99532.73;1694711;83;21080;-58
2022/06/23 05:08:33;;;;;;;6.62;3.98;;;;;;;18.05;65.42;99542.05;1691613;83;21025;-58
2022/06/23 05:11:25;;;;;;;7.53;4.05;;;;;;;18.04;65.66;99539.06;1693941;83;21159;-58
2022/06/23 05:14:07;;;;;;;6.83;4.12;;;;;;;18.05;65.28;99536.72;1694481;83;21118;-59
2022/06/23 05:16:43;;;;;;;8.13;4.15;;;;;;;18.17;65.56;99546.67;1694685;83;21028;-57
2022/06/23 05:19:13;;;;;;;7.50;4.17;;;;;;;18.25;64.97;99540.36;1690156;83;21060;-59
2022/06/23 05:21:46;;;;;;;8.35;3.80;;;;;;;18.25;64.65;99533.70;1691558;83;21138;-58
2022/06/23 05:24:17;;;;;;;6.37;4.03;;;;;;;18.27;64.56;99534.33;1659054;84;21228;-57
2022/06/23 05:26:55;;;;;;;7.17;4.03;;;;;;;18.33;64.49;99538.89;1664825;84;21097;-58
2022/06/23 05:29:35;;;;;;;6.42;3.95;;;;;;;18.41;64.36;99537.08;1681600;83;21119;-58
2022/06/23 05:32:22;;;;;;;7.08;4.00;;;;;;;18.51;64.03;99533.07;1698317;82;21128;-58
2022/06/23 05:34:53;;;;;;;8.55;3.62;;;;;;;18.57;63.82;99540.27;1714667;81;21095;-59
2022/06/23 05:37:37;;;;;;;6.28;3.70;;;;;;;18.61;63.80;99535.87;1719209;81;21810;-58
2022/06/23 05:40:31;;;;;;;9.03;3.75;;;;;;;18.70;63.67;99539.53;1722041;81;21582;-58
2022/06/23 05:43:00;;;;;;;10.85;4.85;;;;;;;18.85;62.73;99532.77;1723871;81;21560;-59
2022/06/23 05:45:41;;;;;;;7.75;4.35;;;;;;;18.94;61.91;99530.76;1704375;81;21129;-58
2022/06/23 05:48:24;;;;;;;8.10;4.03;;;;;;;19.01;62.01;99540.94;1723967;81;21023;-58
2022/06/23 05:51:07;;;;;;;7.28;3.85;;;;;;;19.02;61.99;99559.92;1692984;82;21130;-59
2022/06/23 05:54:02;;;;;;;7.85;4.00;;;;;;;19.05;61.82;99556.86;1721680;81;21132;-59
2022/06/23 05:56:44;;;;;;;7.05;4.35;;;;;;;19.08;61.27;99535.14;1729315;81;21046;-58
2022/06/23 05:59:25;;;;;;;6.20;3.85;;;;;;;19.15;61.55;99567.66;1712765;81;21131;-63
2022/06/23 06:02:19;;;;;;;6.67;4.08;;;;;;;19.14;61.66;99573.51;1726821;81;21114;-65
2022/06/23 06:04:52;;;;;;;8.15;4.72;;;;;;;19.12;61.21;99567.04;1731725;81;21070;-59
2022/06/23 06:07:21;;;;;;;6.10;4.00;;;;;;;19.12;61.43;99567.04;1716024;81;21107;-58
2022/06/23 06:09:49;;;;;;;6.42;4.25;;;;;;;19.18;61.81;99572.59;1732571;81;21057;-59
2022/06/23 06:12:26;;;;;;;6.22;4.28;;;;;;;19.24;61.49;99575.29;1723707;81;21141;-59
2022/06/23 06:15:04;;;;;;;7.22;4.12;;;;;;;19.22;61.32;99568.53;1711954;82;21093;-58
2022/06/23 06:17:33;;;;;;;8.20;4.95;;;;;;;19.22;61.56;99580.01;1710873;81;21135;-57
2022/06/23 06:20:03;;;;;;;6.62;4.20;;;;;;;19.20;60.93;99574.06;1713405;81;21128;-59
2022/06/23 06:22:59;;;;;;;8.78;3.83;;;;;;;19.27;61.70;99582.90;1711404;81;21045;-59
2022/06/23 06:25:33;;;;;;;6.55;4.53;;;;;;;19.40;61.03;99578.13;1713631;81;21156;-59
2022/06/23 06:28:17;;;;;;;8.40;4.30;;;;;;;19.43;60.84;99583.56;1721813;81;21337;-60
2022/06/23 06:30:58;;;;;;;7.78;4.15;;;;;;;19.38;60.87;99585.49;1725515;81;22058;-58
2022/06/23 06:34:07;;;;;;;10.40;4.62;;;;;;;19.35;60.89;99575.73;1728363;81;21226;-58
2022/06/23 06:36:44;;;;;;;5.95;3.95;;;;;;;19.35;61.12;99583.73;1712649;81;21038;-58
2022/06/23 06:39:35;;;;;;;7.42;4.12;;;;;;;19.41;60.96;99583.77;1714904;81;21091;-59
2022/06/23 06:42:13;;;;;;;8.43;4.08;;;;;;;19.47;60.68;99584.30;1656216;83;21047;-58
2022/06/23 06:44:47;;;;;;;7.08;3.52;;;;;;;19.46;60.50;99576.50;1662808;83;21722;-58
2022/06/23 06:47:20;;;;;;;8.03;3.85;;;;;;;19.44;60.51;99586.03;1680259;83;21104;-59
2022/06/23 06:49:47;;;;;;;6.95;4.40;;;;;;;19.42;61.04;99587.27;1683585;83;21702;-58
2022/06/23 06:52:13;;;;;;;5.28;3.37;;;;;;;19.38;60.89;99600.16;1680846;83;21081;-57
2022/06/23 06:54:45;;;;;;;7.70;4.15;;;;;;;19.38;61.44;99601.50;1681380;83;21064;-58
2022/06/23 06:57:35;;;;;;;6.15;3.45;;;;;;;19.40;60.74;99598.14;1689344;83;21265;-59
2022/06/23 07:00:08;;;;;;;9.40;4.53;;;;;;;19.43;60.83;99605.75;1719685;81;21192;-59
2022/06/23 07:02:46;;;;;;;6.80;3.60;;;;;;;19.40;61.44;99603.97;1734075;81;21566;-59
2022/06/23 07:05:45;;;;;;;6.53;3.60;;;;;;;19.39;61.14;99613.83;1729312;81;21141;-59
2022/06/23 07:08:26;;;;;;;7.55;4.15;;;;;;;19.39;61.54;99622.34;1653922;84;21599;-58
2022/06/23 07:10:58;;;;;;;8.28;3.30;;;;;;;19.41;61.69;99622.45;1704684;81;21824;-59
2022/06/23 07:13:33;;;;;;;6.35;4.40;;;;;;;19.52;61.52;99628.23;1730282;81;21098;-59
2022/06/23 07:16:29;;;;;;;5.20;3.10;;;;;;;19.55;61.42;99634.50;1697392;81;21054;-60
2022/06/23 07:19:16;;;;;;;5.20;3.40;;;;;;;19.54;60.92;99634.20;1702517;82;21080;-59
2022/06/23 07:22:06;;;;;;;7.22;3.77;;;;;;;19.52;61.06;99628.23;1718816;81;21539;-58
2022/06/23 07:24:50;;;;;;;6.75;3.25;;;;;;;19.47;61.14;99631.00;1718706;82;21157;-59
2022/06/23 07:27:43;;;;;;;5.87;3.40;;;;;;;19.48;61.03;99640.66;1719414;81;21065;-59
2022/06/23 07:33:30;;;;;;;7.58;3.65;;;;;;;19.57;60.48;99645.30;1772674;78;22108;-74
2022/06/23 07:36:03;;;;;;;8.43;3.17;;;;;;;19.54;60.93;99663.04;1731435;80;21813;-75
2022/06/23 07:38:42;;;;;;;6.60;3.40;;;;;;;19.53;60.93;99653.90;1733622;81;21068;-74
2022/06/23 07:41:43;;;;;;;4.83;3.08;;;;;;;19.56;61.07;99668.99;1719097;82;20983;-73
2022/06/23 07:44:15;;;;;;;5.45;3.45;;;;;;;19.55;60.83;99674.03;1742958;80;20982;-74
2022/06/23 07:46:41;;;;;;;5.28;3.12;;;;;;;19.60;60.79;99670.26;1720388;80;21933;-75
2022/06/23 07:49:08;;;;;;;8.28;3.92;;;;;;;19.71;60.67;99670.19;1739779;80;21481;-75
2022/06/23 07:51:36;;;;;;;5.65;3.30;;;;;;;19.80;60.25;99677.53;1721669;80;22318;-75
2022/06/23 07:54:03;;;;;;;7.55;3.17;;;;;;;19.84;60.97;99680.94;1741680;80;20976;-74
2022/06/23 07:56:31;;;;;;;5.60;3.60;;;;;;;19.95;60.81;99686.20;1721917;81;20947;-75
2022/06/23 07:59:04;;;;;;;7.53;3.80;;;;;;;19.97;61.11;99688.67;1713155;80;21572;-75
2022/06/23 08:01:35;;;;;;;5.30;3.00;;;;;;;19.98;60.28;99690.33;1743982;80;20988;-74
2022/06/23 08:04:27;;;;;;;5.75;3.33;;;;;;;20.06;59.85;99690.14;1737457;80;21102;-74
2022/06/23 08:06:57;;;;;;;6.85;3.80;;;;;;;20.04;60.07;99698.88;1680399;80;21501;-73
2022/06/23 08:09:32;;;;;;;7.22;3.58;;;;;;;20.03;60.60;99703.89;1735049;80;21090;-72
2022/06/23 08:16:49;;;;;;;6.35;3.42;;;;;;;19.97;60.41;99706.86;1721191;80;21122;-76
2022/06/23 08:17:21;;;;;;;6.05;3.27;;;;;;;19.98;60.11;99701.00;1718130;80;21147;-75
2022/06/23 08:19:56;;;;;;;7.42;3.33;;;;;;;20.06;59.66;99699.49;1732698;80;20985;-75
2022/06/23 08:22:31;;;;;;;8.18;3.30;;;;;;;20.18;59.69;99707.21;1724189;80;21070;-75
2022/06/23 08:25:00;;;;;;;8.33;3.77;;;;;;;20.21;59.39;99713.49;1729380;80;21027;-75
2022/06/23 08:27:28;;;;;;;6.28;3.60;;;;;;;20.35;59.67;99710.84;1720192;81;21606;-75
2022/06/23 08:30:02;;;;;;;6.03;3.65;;;;;;;20.46;59.30;99703.57;1732181;80;21090;-75
2022/06/23 08:32:30;;;;;;;5.75;3.08;;;;;;;20.59;58.53;99707.59;1725820;80;22323;-75
2022/06/23 08:35:07;;;;;;;5.55;3.35;;;;;;;20.75;57.62;99709.58;1731764;80;21039;-75
2022/06/23 08:37:39;;;;;;;4.85;2.77;;;;;;;20.84;57.60;99716.34;1722747;80;21067;-76
2022/06/23 08:40:27;;;;;;;6.33;3.60;;;;;;;20.93;57.89;99711.11;1719394;80;21027;-75
2022/06/23 08:43:21;;;;;;;5.60;3.05;;;;;;;21.03;57.50;99716.53;1727451;81;21145;-76
2022/06/23 08:45:52;;;;;;;7.58;3.05;;;;;;;21.04;56.63;99716.86;1724834;80;21063;-75
2022/06/23 08:48:43;;;;;;;5.45;3.40;;;;;;;20.98;56.82;99715.84;1731334;80;21059;-75
2022/06/23 08:51:18;;;;;;;7.35;3.70;;;;;;;20.94;57.33;99717.27;1739021;80;22222;-74
2022/06/23 08:54:14;;;;;;;8.05;2.98;;;;;;;20.93;57.96;99719.13;1719617;80;21016;-75
2022/06/23 08:56:49;;;;;;;10.68;3.92;;;;;;;20.99;57.03;99719.33;1734173;80;24018;-75
2022/06/23 08:59:39;;;;;;;5.80;3.27;;;;;;;20.99;56.27;99719.33;1732411;80;21011;-75
2022/06/23 09:02:23;;;;;;;6.28;3.08;;;;;;;20.98;57.17;99727.88;1723347;80;21043;-74
2022/06/23 09:05:16;;;;;;;6.15;2.90;;;;;;;20.99;57.39;99736.19;1729686;80;21032;-75
2022/06/23 09:08:22;;;;;;;7.40;3.20;;;;;;;21.02;56.59;99733.63;1722938;80;21131;-75
2022/06/23 09:11:03;;;;;;;5.93;2.80;;;;;;;21.06;56.58;99734.33;1717629;80;21159;-75
2022/06/23 09:13:50;;;;;;;5.03;3.08;;;;;;;21.06;54.84;99734.84;1732856;80;21099;-75
2022/06/23 09:16:44;;;;;;;6.00;2.80;;;;;;;21.05;54.64;99748.75;1736669;80;21079;-75
2022/06/23 09:19:51;;;;;;;5.22;3.17;;;;;;;21.03;54.79;99760.17;1727010;80;21309;-76
2022/06/23 09:23:08;;;;;;;6.33;3.22;;;;;;;21.02;54.70;99759.85;1730980;80;21008;-73
2022/06/23 09:25:55;;;;;;;6.08;3.05;;;;;;;21.00;54.67;99766.42;1740240;80;21227;-73
2022/06/23 09:28:54;;;;;;;5.80;3.17;;;;;;;20.94;54.69;99770.75;1737905;80;21034;-74
2022/06/23 09:31:44;;;;;;;5.22;3.00;;;;;;;20.91;55.34;99780.02;1742985;80;21008;-74
2022/06/23 09:34:35;;;;;;;7.33;2.98;;;;;;;20.86;55.76;99778.45;1737620;80;21127;-75
2022/06/23 09:37:25;;;;;;;7.03;3.42;;;;;;;20.81;55.46;99780.11;1741397;80;20984;-74
2022/06/23 09:40:16;;;;;;;5.80;3.10;;;;;;;20.78;55.10;99788.85;1746524;81;21134;-76
2022/06/23 09:43:13;;;;;;;5.37;2.37;;;;;;;20.75;55.24;99792.45;1747367;80;21964;-75
2022/06/23 09:46:23;;;;;;;5.62;3.12;;;;;;;20.70;56.18;99783.70;1733843;80;21109;-75
2022/06/23 09:49:02;;;;;;;8.58;3.08;;;;;;;20.68;56.71;99800.95;1730084;80;21087;-75
2022/06/23 09:51:58;;;;;;;6.55;3.20;;;;;;;20.65;57.74;99802.20;1735928;80;21087;-75
2022/06/23 09:54:51;;;;;;;7.50;3.37;;;;;;;20.64;58.34;99809.08;1747101;80;21097;-76
2022/06/23 09:57:43;;;;;;;5.47;2.92;;;;;;;20.60;59.11;99820.14;1743858;80;21074;-76
2022/06/23 10:00:13;;;;;;;6.95;3.50;;;;;;;20.54;59.84;99820.13;1746457;80;21545;-76
2022/06/23 10:03:09;;;;;;;5.97;3.50;;;;;;;20.47;60.83;99825.97;1723399;81;21043;-76
2022/06/23 10:06:01;;;;;;;5.22;3.15;;;;;;;20.43;61.57;99834.91;1726890;80;21091;-76
2022/06/23 10:08:46;;;;;;;6.75;3.45;;;;;;;20.43;62.52;99840.77;1730508;80;21134;-76
2022/06/23 10:11:21;;;;;;;5.08;2.95;;;;;;;20.46;62.59;99851.03;1744655;79;20988;-76
2022/06/23 10:14:03;;;;;;;6.97;3.98;;;;;;;20.45;62.96;99844.88;1734117;81;21094;-76
2022/06/23 10:16:54;;;;;;;5.40;3.10;;;;;;;20.41;62.66;99847.66;1721817;80;21583;-76
2022/06/23 10:19:44;;;;;;;6.78;3.67;;;;;;;20.35;63.14;99842.58;1731822;80;21059;-76
2022/06/23 10:23:03;;;;;;;6.00;2.83;;;;;;;20.27;63.67;99848.61;1723368;80;21130;-76
2022/06/23 10:25:59;;;;;;;5.28;2.77;;;;;;;20.24;64.02;99841.84;1733299;80;21082;-76
2022/06/23 10:28:31;;;;;;;7.15;3.45;;;;;;;20.31;64.22;99852.52;1729475;80;22332;-75
2022/06/23 10:31:29;;;;;;;8.93;3.40;;;;;;;20.37;64.53;99856.55;1712871;80;21063;-75
2022/06/23 10:34:44;;;;;;;6.55;3.85;;;;;;;20.45;64.69;99850.74;1719189;80;21057;-75
2022/06/23 10:37:37;;;;;;;6.17;3.65;;;;;;;20.56;64.37;99852.81;1712905;80;21141;-74
2022/06/23 10:40:22;;;;;;;6.33;3.30;;;;;;;20.66;64.10;99856.47;1721782;80;21115;-75
2022/06/23 10:43:15;;;;;;;8.43;3.15;;;;;;;20.66;63.30;99849.80;1730672;80;21454;-75
2022/06/23 10:45:45;;;;;;;6.08;3.17;;;;;;;20.65;62.37;99845.48;1712644;80;21056;-76
2022/06/23 10:48:41;;;;;;;6.05;3.20;;;;;;;20.70;61.41;99860.41;1716375;81;21560;-75
2022/06/23 10:51:22;;;;;;;10.48;3.35;;;;;;;20.62;61.59;99861.89;1733226;80;21164;-77
2022/06/23 10:54:23;;;;;;;5.62;3.02;;;;;;;20.53;61.75;99867.42;1731969;80;21443;-76
2022/06/23 10:57:23;;;;;;;5.22;2.85;;;;;;;20.49;61.94;99876.03;1733260;80;21579;-75
2022/06/23 11:00:18;;;;;;;5.17;3.05;;;;;;;20.41;61.84;99879.72;1686758;82;21091;-76
2022/06/23 11:03:19;;;;;;;6.50;3.42;;;;;;;20.32;62.14;99880.89;1724926;80;21104;-75
2022/06/23 11:06:13;;;;;;;5.97;3.12;;;;;;;20.25;62.55;99886.73;1727952;80;21178;-76
2022/06/23 11:09:00;;;;;;;7.40;2.83;;;;;;;20.25;62.33;99883.53;1746744;80;21074;-75
2022/06/23 11:11:56;;;;;;;4.50;2.70;;;;;;;20.26;61.75;99883.86;1736961;80;21130;-75
2022/06/23 11:14:52;;;;;;;;;;;;;;;20.29;62.04;99887.97;1738831;80;21126;-76
2022/06/23 11:17:36;;;;;;;5.75;2.95;;;;;;;20.29;61.78;99885.30;1730336;80;20226;-76
2022/06/23 11:20:43;;;;;;;4.67;2.52;;;;;;;20.28;61.99;99894.35;1733731;80;21137;-77
2022/06/23 11:24:00;;;;;;;6.40;3.15;;;;;;;20.27;62.04;99898.03;1731505;80;21791;-77
2022/06/23 11:26:44;;;;;;;5.67;2.55;;;;;;;20.30;61.86;99901.65;1733570;80;21048;-76
2022/06/23 11:29:36;;;;;;;6.37;2.60;;;;;;;20.39;61.99;99899.95;1730553;80;21039;-76
2022/06/23 11:32:40;;;;;;;6.25;2.90;;;;;;;20.49;61.65;99904.91;1730557;80;21035;-77
2022/06/23 11:35:24;;;;;;;4.53;2.50;;;;;;;20.55;60.97;99899.29;1733042;80;21245;-76
2022/06/23 11:38:06;;;;;;;5.55;2.83;;;;;;;20.58;60.21;99901.05;1732040;80;21111;-77
2022/06/23 11:41:23;;;;;;;7.65;2.80;;;;;;;20.64;60.21;99907.98;1744646;80;21043;-77
2022/06/23 11:44:22;;;;;;;;;;;;;;;20.67;59.77;99904.91;1736320;80;21079;-75
2022/06/23 11:47:42;;;;;;;4.10;2.47;;;;;;;20.73;59.50;99910.80;1729974;80;20187;-76
2022/06/23 11:50:41;;;;;;;7.72;3.52;;;;;;;20.74;59.36;99911.91;1733917;80;21496;-77
2022/06/23 11:53:52;;;;;;;5.78;2.95;;;;;;;20.78;59.38;99912.36;1727135;80;21656;-75
2022/06/23 11:56:24;;;;;;;5.35;2.42;;;;;;;20.80;56.99;99918.33;1732197;80;21055;-75
2022/06/23 11:59:16;;;;;;;5.67;2.47;;;;;;;20.82;56.00;99914.93;1736329;80;22376;-76
2022/06/23 12:01:43;;;;;;;4.22;2.50;;;;;;;20.83;54.94;99913.92;1732792;80;21188;-76
2022/06/23 12:04:15;;;;;;;4.22;2.08;;;;;;;20.89;55.20;99914.95;1695064;82;21809;-76
2022/06/23 12:07:13;;;;;;;5.47;2.50;;;;;;;20.94;55.55;99913.83;1729484;80;21537;-76
2022/06/23 12:10:02;;;;;;;5.95;3.02;;;;;;;21.04;54.60;99914.26;1730226;80;21583;-76
2022/06/23 12:12:33;;;;;;;5.17;2.67;;;;;;;21.13;54.21;99922.41;1732173;80;21055;-75
2022/06/23 12:15:05;;;;;;;4.60;2.30;;;;;;;21.25;54.55;99925.80;1734897;81;21510;-76
2022/06/23 12:17:43;;;;;;;7.12;2.85;;;;;;;21.33;54.45;99925.13;1726583;80;21101;-76
2022/06/23 12:20:51;;;;;;;4.97;2.37;;;;;;;21.45;54.53;99929.34;1729524;80;21062;-76
2022/06/23 12:23:34;;;;;;;7.70;2.77;;;;;;;21.51;52.02;99920.50;1732388;80;21098;-76
2022/06/23 12:26:30;;;;;;;6.00;2.33;;;;;;;21.58;52.26;99923.19;1734282;80;21516;-76
2022/06/23 12:29:36;;;;;;;4.50;2.50;;;;;;;21.59;51.58;99914.14;1731442;80;21063;-75
2022/06/23 12:32:19;;;;;;;4.83;2.20;;;;;;;21.59;52.06;99931.53;1728922;80;21858;-75
2022/06/23 12:34:56;;;;;;;10.80;3.58;;;;;;;21.60;52.15;99934.53;1733776;80;21437;-76
2022/06/23 12:37:37;;;;;;;5.03;2.50;;;;;;;21.57;51.56;99908.66;1730182;80;21130;-74
2022/06/23 12:40:33;;;;;;;4.37;2.37;;;;;;;21.57;52.16;99926.91;1726543;80;21664;-75
2022/06/23 12:43:14;;;;;;;4.90;2.60;;;;;;;21.57;52.72;99934.09;1728223;80;21046;-75
2022/06/23 12:46:01;;;;;;;4.30;2.20;;;;;;;21.57;52.19;99929.59;1733967;80;21143;-75
2022/06/23 12:48:36;;;;;;;3.95;1.95;;;;;;;21.56;52.39;99930.61;1731532;81;21114;-76
2022/06/23 12:51:47;;;;;;;5.83;2.40;;;;;;;21.54;51.57;99936.69;1734195;80;21102;-76
2022/06/23 12:54:36;;;;;;;5.60;2.40;;;;;;;21.53;51.06;99937.70;1730732;80;21051;-75
2022/06/23 12:57:31;;;;;;;4.50;2.37;;;;;;;21.55;52.14;99951.70;1734319;80;21020;-74
2022/06/23 13:00:05;;;;;;;5.10;2.47;;;;;;;21.52;51.41;99946.78;1732345;80;21215;-75
2022/06/23 13:02:37;;;;;;;5.17;2.65;;;;;;;21.53;52.46;99921.64;1731482;80;21098;-76
2022/06/23 13:05:26;;;;;;;6.10;2.65;;;;;;;21.50;51.83;99944.31;1733721;81;21068;-76
2022/06/23 13:08:01;;;;;;;6.25;2.65;;;;;;;21.51;51.70;99949.14;1729503;81;21048;-75
2022/06/23 13:10:38;;;;;;;5.78;2.52;;;;;;;21.52;52.00;99954.81;1729252;80;21083;-75
2022/06/23 13:13:23;;;;;;;5.15;2.65;;;;;;;21.52;52.16;99956.15;1729231;80;21123;-74
2022/06/23 13:15:57;;;;;;;4.53;2.73;;;;;;;21.51;51.85;99945.13;1731548;80;21083;-74
2022/06/23 13:18:42;;;;;;;4.30;2.27;;;;;;;21.50;52.39;99941.63;1732027;80;21377;-73